sensor_id;sensor_type;location;lat;lon;timestamp;P1;durP1;ratioP1;P2;durP2;ratioP2
52564;SDS011;38460;53.106;7.004;2024-01-11T00:00:42;45.15;;;22.25;;
52564;SDS011;38460;53.106;7.004;2024-01-11T00:03:08;48.13;;;23.25;;
52564;SDS011;38460;53.106;7.004;2024-01-11T00:05:34;40.33;;;20.80;;
52564;SDS011;38460;53.106;7.004;2024-01-11T00:08:00;44.55;;;22.67;;
52564;SDS011;38460;53.106;7.004;2024-01-11T00:10:26;44.80;;;23.30;;
52564;SDS011;38460;53.106;7.004;2024-01-11T00:12:52;48.65;;;25.05;;
52564;SDS011;38460;53.106;7.004;2024-01-11T00:15:17;45.65;;;23.25;;
52564;SDS011;38460;53.106;7.004;2024-01-11T00:17:43;46.22;;;23.70;;
52564;SDS011;38460;53.106;7.004;2024-01-11T00:20:09;43.47;;;23.73;;
52564;SDS011;38460;53.106;7.004;2024-01-11T00:22:35;47.08;;;24.40;;
52564;SDS011;38460;53.106;7.004;2024-01-11T00:25:02;49.28;;;25.48;;
52564;SDS011;38460;53.106;7.004;2024-01-11T00:27:29;50.38;;;24.33;;
52564;SDS011;38460;53.106;7.004;2024-01-11T00:29:54;47.08;;;22.88;;
52564;SDS011;38460;53.106;7.004;2024-01-11T00:32:20;53.83;;;24.35;;
52564;SDS011;38460;53.106;7.004;2024-01-11T00:34:48;45.15;;;24.55;;
52564;SDS011;38460;53.106;7.004;2024-01-11T00:37:14;49.05;;;23.67;;
52564;SDS011;38460;53.106;7.004;2024-01-11T00:39:41;56.10;;;27.88;;
52564;SDS011;38460;53.106;7.004;2024-01-11T00:42:07;52.58;;;25.90;;
52564;SDS011;38460;53.106;7.004;2024-01-11T00:44:32;57.58;;;25.30;;
52564;SDS011;38460;53.106;7.004;2024-01-11T00:46:58;47.38;;;23.40;;
52564;SDS011;38460;53.106;7.004;2024-01-11T00:49:24;47.15;;;25.73;;
52564;SDS011;38460;53.106;7.004;2024-01-11T00:51:49;45.03;;;22.75;;
52564;SDS011;38460;53.106;7.004;2024-01-11T00:54:15;50.75;;;24.42;;
52564;SDS011;38460;53.106;7.004;2024-01-11T00:56:41;48.65;;;24.00;;
52564;SDS011;38460;53.106;7.004;2024-01-11T00:59:07;47.95;;;26.02;;
52564;SDS011;38460;53.106;7.004;2024-01-11T01:01:32;46.83;;;23.63;;
52564;SDS011;38460;53.106;7.004;2024-01-11T01:03:58;52.20;;;25.00;;
52564;SDS011;38460;53.106;7.004;2024-01-11T01:06:24;54.30;;;27.02;;
52564;SDS011;38460;53.106;7.004;2024-01-11T01:08:50;55.05;;;25.10;;
52564;SDS011;38460;53.106;7.004;2024-01-11T01:11:15;55.25;;;25.98;;
52564;SDS011;38460;53.106;7.004;2024-01-11T01:13:41;44.55;;;23.77;;
52564;SDS011;38460;53.106;7.004;2024-01-11T01:16:07;51.25;;;26.98;;
52564;SDS011;38460;53.106;7.004;2024-01-11T01:18:33;51.10;;;25.27;;
52564;SDS011;38460;53.106;7.004;2024-01-11T01:20:58;48.20;;;24.73;;
52564;SDS011;38460;53.106;7.004;2024-01-11T01:23:25;55.53;;;24.80;;
52564;SDS011;38460;53.106;7.004;2024-01-11T01:25:51;54.90;;;26.75;;
52564;SDS011;38460;53.106;7.004;2024-01-11T01:28:17;53.85;;;25.42;;
52564;SDS011;38460;53.106;7.004;2024-01-11T01:30:42;52.08;;;25.45;;
52564;SDS011;38460;53.106;7.004;2024-01-11T01:33:08;51.75;;;24.35;;
52564;SDS011;38460;53.106;7.004;2024-01-11T01:35:34;49.80;;;27.58;;
52564;SDS011;38460;53.106;7.004;2024-01-11T01:38:00;48.78;;;25.65;;
52564;SDS011;38460;53.106;7.004;2024-01-11T01:40:25;44.90;;;25.70;;
52564;SDS011;38460;53.106;7.004;2024-01-11T01:42:57;49.65;;;27.10;;
52564;SDS011;38460;53.106;7.004;2024-01-11T01:45:24;47.88;;;23.85;;
52564;SDS011;38460;53.106;7.004;2024-01-11T01:47:49;48.83;;;24.45;;
52564;SDS011;38460;53.106;7.004;2024-01-11T01:50:15;56.72;;;26.08;;
52564;SDS011;38460;53.106;7.004;2024-01-11T01:52:41;53.83;;;28.25;;
52564;SDS011;38460;53.106;7.004;2024-01-11T01:55:09;45.20;;;24.48;;
52564;SDS011;38460;53.106;7.004;2024-01-11T01:57:36;45.65;;;24.85;;
52564;SDS011;38460;53.106;7.004;2024-01-11T02:00:03;48.20;;;26.10;;
52564;SDS011;38460;53.106;7.004;2024-01-11T02:02:30;53.03;;;24.13;;
52564;SDS011;38460;53.106;7.004;2024-01-11T02:04:58;54.85;;;26.05;;
52564;SDS011;38460;53.106;7.004;2024-01-11T02:07:24;50.92;;;24.30;;
52564;SDS011;38460;53.106;7.004;2024-01-11T02:09:50;46.75;;;23.75;;
52564;SDS011;38460;53.106;7.004;2024-01-11T02:12:17;49.75;;;24.40;;
52564;SDS011;38460;53.106;7.004;2024-01-11T02:14:43;47.40;;;24.50;;
52564;SDS011;38460;53.106;7.004;2024-01-11T02:17:09;55.05;;;27.15;;
52564;SDS011;38460;53.106;7.004;2024-01-11T02:19:35;55.45;;;26.15;;
52564;SDS011;38460;53.106;7.004;2024-01-11T02:22:02;52.70;;;24.80;;
52564;SDS011;38460;53.106;7.004;2024-01-11T02:24:37;55.63;;;24.73;;
52564;SDS011;38460;53.106;7.004;2024-01-11T02:27:03;48.90;;;24.17;;
52564;SDS011;38460;53.106;7.004;2024-01-11T02:29:30;52.80;;;25.25;;
52564;SDS011;38460;53.106;7.004;2024-01-11T02:31:56;45.95;;;24.55;;
52564;SDS011;38460;53.106;7.004;2024-01-11T02:34:23;56.30;;;26.00;;
52564;SDS011;38460;53.106;7.004;2024-01-11T02:36:51;48.70;;;24.15;;
52564;SDS011;38460;53.106;7.004;2024-01-11T02:39:18;50.83;;;24.98;;
52564;SDS011;38460;53.106;7.004;2024-01-11T02:41:44;49.30;;;23.95;;
52564;SDS011;38460;53.106;7.004;2024-01-11T02:44:10;44.33;;;23.83;;
52564;SDS011;38460;53.106;7.004;2024-01-11T02:46:36;52.83;;;23.95;;
52564;SDS011;38460;53.106;7.004;2024-01-11T02:49:03;50.08;;;25.38;;
52564;SDS011;38460;53.106;7.004;2024-01-11T02:51:28;51.17;;;23.80;;
52564;SDS011;38460;53.106;7.004;2024-01-11T02:53:54;45.58;;;25.05;;
52564;SDS011;38460;53.106;7.004;2024-01-11T02:56:20;45.28;;;22.15;;
52564;SDS011;38460;53.106;7.004;2024-01-11T02:58:45;47.67;;;22.45;;
52564;SDS011;38460;53.106;7.004;2024-01-11T03:01:11;48.47;;;22.63;;
52564;SDS011;38460;53.106;7.004;2024-01-11T03:03:37;48.13;;;23.92;;
52564;SDS011;38460;53.106;7.004;2024-01-11T03:06:03;43.38;;;22.38;;
52564;SDS011;38460;53.106;7.004;2024-01-11T03:08:29;44.22;;;22.95;;
52564;SDS011;38460;53.106;7.004;2024-01-11T03:10:55;46.72;;;24.55;;
52564;SDS011;38460;53.106;7.004;2024-01-11T03:13:21;47.97;;;24.33;;
52564;SDS011;38460;53.106;7.004;2024-01-11T03:15:46;46.25;;;22.67;;
52564;SDS011;38460;53.106;7.004;2024-01-11T03:18:12;45.15;;;23.95;;
52564;SDS011;38460;53.106;7.004;2024-01-11T03:20:38;43.22;;;23.65;;
52564;SDS011;38460;53.106;7.004;2024-01-11T03:23:03;45.53;;;24.33;;
52564;SDS011;38460;53.106;7.004;2024-01-11T03:25:29;49.00;;;24.52;;
52564;SDS011;38460;53.106;7.004;2024-01-11T03:27:55;50.65;;;24.58;;
52564;SDS011;38460;53.106;7.004;2024-01-11T03:30:21;53.95;;;24.10;;
52564;SDS011;38460;53.106;7.004;2024-01-11T03:32:47;46.90;;;24.13;;
52564;SDS011;38460;53.106;7.004;2024-01-11T03:35:12;44.47;;;23.35;;
52564;SDS011;38460;53.106;7.004;2024-01-11T03:37:38;42.50;;;23.02;;
52564;SDS011;38460;53.106;7.004;2024-01-11T03:40:04;54.72;;;24.98;;
52564;SDS011;38460;53.106;7.004;2024-01-11T03:42:30;49.30;;;23.67;;
52564;SDS011;38460;53.106;7.004;2024-01-11T03:44:56;43.92;;;22.52;;
52564;SDS011;38460;53.106;7.004;2024-01-11T03:47:22;48.78;;;23.05;;
52564;SDS011;38460;53.106;7.004;2024-01-11T03:49:47;47.92;;;24.15;;
52564;SDS011;38460;53.106;7.004;2024-01-11T03:52:13;48.13;;;24.92;;
52564;SDS011;38460;53.106;7.004;2024-01-11T03:54:39;47.80;;;24.27;;
52564;SDS011;38460;53.106;7.004;2024-01-11T03:57:04;50.60;;;24.42;;
52564;SDS011;38460;53.106;7.004;2024-01-11T03:59:31;47.42;;;23.35;;
52564;SDS011;38460;53.106;7.004;2024-01-11T04:01:57;44.40;;;22.95;;
52564;SDS011;38460;53.106;7.004;2024-01-11T04:04:24;48.35;;;25.23;;
52564;SDS011;38460;53.106;7.004;2024-01-11T04:06:50;44.25;;;23.65;;
52564;SDS011;38460;53.106;7.004;2024-01-11T04:09:17;45.35;;;23.77;;
52564;SDS011;38460;53.106;7.004;2024-01-11T04:11:43;45.45;;;21.77;;
52564;SDS011;38460;53.106;7.004;2024-01-11T04:14:08;48.30;;;23.30;;
52564;SDS011;38460;53.106;7.004;2024-01-11T04:16:39;54.85;;;24.83;;
52564;SDS011;38460;53.106;7.004;2024-01-11T04:19:08;47.08;;;23.45;;
52564;SDS011;38460;53.106;7.004;2024-01-11T04:21:34;48.05;;;23.83;;
52564;SDS011;38460;53.106;7.004;2024-01-11T04:24:02;52.47;;;25.38;;
52564;SDS011;38460;53.106;7.004;2024-01-11T04:26:28;50.40;;;25.02;;
52564;SDS011;38460;53.106;7.004;2024-01-11T04:28:53;53.13;;;26.08;;
52564;SDS011;38460;53.106;7.004;2024-01-11T04:31:19;55.55;;;24.30;;
52564;SDS011;38460;53.106;7.004;2024-01-11T04:33:45;46.65;;;25.15;;
52564;SDS011;38460;53.106;7.004;2024-01-11T04:36:11;53.90;;;25.88;;
52564;SDS011;38460;53.106;7.004;2024-01-11T04:38:38;59.30;;;26.80;;
52564;SDS011;38460;53.106;7.004;2024-01-11T04:41:07;56.38;;;26.98;;
52564;SDS011;38460;53.106;7.004;2024-01-11T04:43:36;56.92;;;28.70;;
52564;SDS011;38460;53.106;7.004;2024-01-11T04:46:18;53.45;;;26.40;;
52564;SDS011;38460;53.106;7.004;2024-01-11T04:48:45;51.78;;;27.23;;
52564;SDS011;38460;53.106;7.004;2024-01-11T04:51:12;56.50;;;28.70;;
52564;SDS011;38460;53.106;7.004;2024-01-11T04:53:39;59.10;;;28.45;;
52564;SDS011;38460;53.106;7.004;2024-01-11T04:56:09;59.65;;;27.80;;
52564;SDS011;38460;53.106;7.004;2024-01-11T04:58:36;60.25;;;29.30;;
52564;SDS011;38460;53.106;7.004;2024-01-11T05:01:05;54.45;;;26.33;;
52564;SDS011;38460;53.106;7.004;2024-01-11T05:03:31;48.47;;;26.92;;
52564;SDS011;38460;53.106;7.004;2024-01-11T05:05:57;61.47;;;28.48;;
52564;SDS011;38460;53.106;7.004;2024-01-11T05:08:25;53.13;;;27.65;;
52564;SDS011;38460;53.106;7.004;2024-01-11T05:10:51;55.28;;;27.13;;
52564;SDS011;38460;53.106;7.004;2024-01-11T05:13:17;53.50;;;26.73;;
52564;SDS011;38460;53.106;7.004;2024-01-11T05:15:43;57.70;;;27.33;;
52564;SDS011;38460;53.106;7.004;2024-01-11T05:18:09;54.13;;;26.98;;
52564;SDS011;38460;53.106;7.004;2024-01-11T05:20:36;60.42;;;29.52;;
52564;SDS011;38460;53.106;7.004;2024-01-11T05:23:02;58.60;;;27.40;;
52564;SDS011;38460;53.106;7.004;2024-01-11T05:25:27;57.03;;;28.35;;
52564;SDS011;38460;53.106;7.004;2024-01-11T05:27:56;59.83;;;29.27;;
52564;SDS011;38460;53.106;7.004;2024-01-11T05:30:22;58.08;;;28.42;;
52564;SDS011;38460;53.106;7.004;2024-01-11T05:32:48;63.42;;;31.08;;
52564;SDS011;38460;53.106;7.004;2024-01-11T05:35:13;61.85;;;28.88;;
52564;SDS011;38460;53.106;7.004;2024-01-11T05:37:39;52.97;;;28.60;;
52564;SDS011;38460;53.106;7.004;2024-01-11T05:40:05;64.65;;;29.35;;
52564;SDS011;38460;53.106;7.004;2024-01-11T05:42:31;61.28;;;30.33;;
52564;SDS011;38460;53.106;7.004;2024-01-11T05:44:57;62.20;;;29.15;;
52564;SDS011;38460;53.106;7.004;2024-01-11T05:47:22;63.75;;;29.58;;
52564;SDS011;38460;53.106;7.004;2024-01-11T05:49:48;56.05;;;28.80;;
52564;SDS011;38460;53.106;7.004;2024-01-11T05:52:15;53.38;;;26.98;;
52564;SDS011;38460;53.106;7.004;2024-01-11T05:54:40;62.30;;;29.60;;
52564;SDS011;38460;53.106;7.004;2024-01-11T05:57:06;58.15;;;30.10;;
52564;SDS011;38460;53.106;7.004;2024-01-11T05:59:32;60.88;;;29.88;;
52564;SDS011;38460;53.106;7.004;2024-01-11T06:01:58;56.70;;;28.90;;
52564;SDS011;38460;53.106;7.004;2024-01-11T06:04:25;56.50;;;27.85;;
52564;SDS011;38460;53.106;7.004;2024-01-11T06:06:51;59.00;;;27.83;;
52564;SDS011;38460;53.106;7.004;2024-01-11T06:09:17;62.47;;;28.80;;
52564;SDS011;38460;53.106;7.004;2024-01-11T06:11:43;56.67;;;28.35;;
52564;SDS011;38460;53.106;7.004;2024-01-11T06:14:09;60.78;;;28.23;;
52564;SDS011;38460;53.106;7.004;2024-01-11T06:16:34;58.65;;;29.25;;
52564;SDS011;38460;53.106;7.004;2024-01-11T06:19:00;50.38;;;25.95;;
52564;SDS011;38460;53.106;7.004;2024-01-11T06:21:26;55.60;;;26.33;;
52564;SDS011;38460;53.106;7.004;2024-01-11T06:23:52;53.33;;;25.42;;
52564;SDS011;38460;53.106;7.004;2024-01-11T06:26:17;55.03;;;27.48;;
52564;SDS011;38460;53.106;7.004;2024-01-11T06:28:43;59.67;;;27.00;;
52564;SDS011;38460;53.106;7.004;2024-01-11T06:31:09;52.75;;;25.52;;
52564;SDS011;38460;53.106;7.004;2024-01-11T06:33:35;57.10;;;28.45;;
52564;SDS011;38460;53.106;7.004;2024-01-11T06:36:03;58.00;;;27.80;;
52564;SDS011;38460;53.106;7.004;2024-01-11T06:38:31;58.28;;;26.08;;
52564;SDS011;38460;53.106;7.004;2024-01-11T06:40:57;56.45;;;27.00;;
52564;SDS011;38460;53.106;7.004;2024-01-11T06:43:22;53.15;;;27.83;;
52564;SDS011;38460;53.106;7.004;2024-01-11T06:45:48;52.15;;;27.17;;
52564;SDS011;38460;53.106;7.004;2024-01-11T06:48:14;51.70;;;27.02;;
52564;SDS011;38460;53.106;7.004;2024-01-11T06:50:39;53.00;;;26.15;;
52564;SDS011;38460;53.106;7.004;2024-01-11T06:53:05;59.65;;;27.73;;
52564;SDS011;38460;53.106;7.004;2024-01-11T06:55:31;57.17;;;28.05;;
52564;SDS011;38460;53.106;7.004;2024-01-11T06:57:56;79.30;;;37.88;;
52564;SDS011;38460;53.106;7.004;2024-01-11T07:00:23;86.07;;;41.53;;
52564;SDS011;38460;53.106;7.004;2024-01-11T07:02:48;65.80;;;35.78;;
52564;SDS011;38460;53.106;7.004;2024-01-11T07:05:14;57.58;;;31.25;;
52564;SDS011;38460;53.106;7.004;2024-01-11T07:07:40;60.15;;;31.48;;
52564;SDS011;38460;53.106;7.004;2024-01-11T07:10:06;53.72;;;30.55;;
52564;SDS011;38460;53.106;7.004;2024-01-11T07:12:33;49.80;;;27.52;;
52564;SDS011;38460;53.106;7.004;2024-01-11T07:14:59;58.50;;;27.83;;
52564;SDS011;38460;53.106;7.004;2024-01-11T07:17:25;57.25;;;28.80;;
52564;SDS011;38460;53.106;7.004;2024-01-11T07:19:51;58.20;;;28.35;;
52564;SDS011;38460;53.106;7.004;2024-01-11T07:22:16;56.60;;;28.05;;
52564;SDS011;38460;53.106;7.004;2024-01-11T07:24:42;57.70;;;27.65;;
52564;SDS011;38460;53.106;7.004;2024-01-11T07:27:08;56.75;;;27.02;;
52564;SDS011;38460;53.106;7.004;2024-01-11T07:29:33;53.80;;;25.67;;
52564;SDS011;38460;53.106;7.004;2024-01-11T07:32:00;49.30;;;26.33;;
52564;SDS011;38460;53.106;7.004;2024-01-11T07:34:26;61.92;;;28.73;;
52564;SDS011;38460;53.106;7.004;2024-01-11T07:36:52;55.58;;;26.38;;
52564;SDS011;38460;53.106;7.004;2024-01-11T07:39:19;52.63;;;25.30;;
52564;SDS011;38460;53.106;7.004;2024-01-11T07:41:44;54.75;;;24.38;;
52564;SDS011;38460;53.106;7.004;2024-01-11T07:44:10;51.20;;;25.30;;
52564;SDS011;38460;53.106;7.004;2024-01-11T07:46:36;51.80;;;25.35;;
52564;SDS011;38460;53.106;7.004;2024-01-11T07:49:02;61.72;;;28.52;;
52564;SDS011;38460;53.106;7.004;2024-01-11T07:51:28;61.58;;;28.33;;
52564;SDS011;38460;53.106;7.004;2024-01-11T07:53:54;59.20;;;27.73;;
52564;SDS011;38460;53.106;7.004;2024-01-11T07:56:19;59.17;;;28.90;;
52564;SDS011;38460;53.106;7.004;2024-01-11T07:58:45;57.72;;;27.30;;
52564;SDS011;38460;53.106;7.004;2024-01-11T08:01:11;53.20;;;25.58;;
52564;SDS011;38460;53.106;7.004;2024-01-11T08:03:37;58.72;;;27.83;;
52564;SDS011;38460;53.106;7.004;2024-01-11T08:06:03;57.10;;;28.50;;
52564;SDS011;38460;53.106;7.004;2024-01-11T08:08:32;53.30;;;26.40;;
52564;SDS011;38460;53.106;7.004;2024-01-11T08:10:59;52.15;;;26.50;;
52564;SDS011;38460;53.106;7.004;2024-01-11T08:13:24;56.60;;;26.75;;
52564;SDS011;38460;53.106;7.004;2024-01-11T08:15:50;52.53;;;27.27;;
52564;SDS011;38460;53.106;7.004;2024-01-11T08:18:18;57.38;;;27.05;;
52564;SDS011;38460;53.106;7.004;2024-01-11T08:20:44;62.05;;;28.17;;
52564;SDS011;38460;53.106;7.004;2024-01-11T08:23:09;54.65;;;27.77;;
52564;SDS011;38460;53.106;7.004;2024-01-11T08:25:35;51.75;;;26.95;;
52564;SDS011;38460;53.106;7.004;2024-01-11T08:28:01;52.00;;;25.85;;
52564;SDS011;38460;53.106;7.004;2024-01-11T08:30:28;52.83;;;27.60;;
52564;SDS011;38460;53.106;7.004;2024-01-11T08:32:54;53.03;;;26.65;;
52564;SDS011;38460;53.106;7.004;2024-01-11T08:35:21;49.53;;;26.00;;
52564;SDS011;38460;53.106;7.004;2024-01-11T08:37:46;58.17;;;28.05;;
52564;SDS011;38460;53.106;7.004;2024-01-11T08:40:12;52.03;;;26.27;;
52564;SDS011;38460;53.106;7.004;2024-01-11T08:42:38;48.95;;;25.75;;
52564;SDS011;38460;53.106;7.004;2024-01-11T08:45:06;51.10;;;26.33;;
52564;SDS011;38460;53.106;7.004;2024-01-11T08:47:32;56.67;;;26.90;;
52564;SDS011;38460;53.106;7.004;2024-01-11T08:49:59;56.38;;;27.77;;
52564;SDS011;38460;53.106;7.004;2024-01-11T08:52:25;56.53;;;26.52;;
52564;SDS011;38460;53.106;7.004;2024-01-11T08:54:51;50.75;;;25.73;;
52564;SDS011;38460;53.106;7.004;2024-01-11T08:57:16;54.22;;;26.15;;
52564;SDS011;38460;53.106;7.004;2024-01-11T08:59:42;51.45;;;26.42;;
52564;SDS011;38460;53.106;7.004;2024-01-11T09:02:08;55.45;;;26.55;;
52564;SDS011;38460;53.106;7.004;2024-01-11T09:04:33;52.67;;;26.48;;
52564;SDS011;38460;53.106;7.004;2024-01-11T09:06:59;49.45;;;26.15;;
52564;SDS011;38460;53.106;7.004;2024-01-11T09:09:25;53.63;;;27.40;;
52564;SDS011;38460;53.106;7.004;2024-01-11T09:11:51;51.05;;;26.27;;
52564;SDS011;38460;53.106;7.004;2024-01-11T09:14:17;45.05;;;23.20;;
52564;SDS011;38460;53.106;7.004;2024-01-11T09:16:42;49.92;;;25.00;;
52564;SDS011;38460;53.106;7.004;2024-01-11T09:19:10;46.05;;;24.25;;
52564;SDS011;38460;53.106;7.004;2024-01-11T09:21:35;48.58;;;24.33;;
52564;SDS011;38460;53.106;7.004;2024-01-11T09:24:06;49.42;;;24.33;;
52564;SDS011;38460;53.106;7.004;2024-01-11T09:26:32;47.88;;;24.13;;
52564;SDS011;38460;53.106;7.004;2024-01-11T09:28:57;47.03;;;22.85;;
52564;SDS011;38460;53.106;7.004;2024-01-11T09:31:23;42.72;;;22.75;;
52564;SDS011;38460;53.106;7.004;2024-01-11T09:33:49;47.13;;;23.95;;
52564;SDS011;38460;53.106;7.004;2024-01-11T09:36:15;47.10;;;22.77;;
52564;SDS011;38460;53.106;7.004;2024-01-11T09:38:41;49.28;;;23.77;;
52564;SDS011;38460;53.106;7.004;2024-01-11T09:41:07;44.72;;;23.63;;
52564;SDS011;38460;53.106;7.004;2024-01-11T09:43:35;44.60;;;23.67;;
52564;SDS011;38460;53.106;7.004;2024-01-11T09:46:04;40.70;;;21.65;;
52564;SDS011;38460;53.106;7.004;2024-01-11T09:48:32;46.28;;;22.33;;
52564;SDS011;38460;53.106;7.004;2024-01-11T09:50:59;41.75;;;22.33;;
52564;SDS011;38460;53.106;7.004;2024-01-11T09:53:32;40.65;;;21.33;;
52564;SDS011;38460;53.106;7.004;2024-01-11T09:55:58;39.05;;;20.27;;
52564;SDS011;38460;53.106;7.004;2024-01-11T10:00:57;40.25;;;20.98;;
52564;SDS011;38460;53.106;7.004;2024-01-11T10:03:24;38.67;;;19.27;;
52564;SDS011;38460;53.106;7.004;2024-01-11T10:05:52;38.40;;;20.77;;
52564;SDS011;38460;53.106;7.004;2024-01-11T10:08:22;38.83;;;19.63;;
52564;SDS011;38460;53.106;7.004;2024-01-11T10:10:49;38.95;;;20.35;;
52564;SDS011;38460;53.106;7.004;2024-01-11T10:13:15;40.50;;;20.00;;
52564;SDS011;38460;53.106;7.004;2024-01-11T10:15:41;35.40;;;20.00;;
52564;SDS011;38460;53.106;7.004;2024-01-11T10:18:08;38.80;;;20.63;;
52564;SDS011;38460;53.106;7.004;2024-01-11T10:20:34;33.25;;;19.15;;
52564;SDS011;38460;53.106;7.004;2024-01-11T10:22:59;36.13;;;19.63;;
52564;SDS011;38460;53.106;7.004;2024-01-11T10:25:26;36.40;;;19.05;;
52564;SDS011;38460;53.106;7.004;2024-01-11T10:27:52;32.72;;;18.95;;
52564;SDS011;38460;53.106;7.004;2024-01-11T10:30:18;36.65;;;18.48;;
52564;SDS011;38460;53.106;7.004;2024-01-11T10:32:48;36.15;;;19.67;;
52564;SDS011;38460;53.106;7.004;2024-01-11T10:35:15;37.33;;;17.85;;
52564;SDS011;38460;53.106;7.004;2024-01-11T10:37:43;36.80;;;19.35;;
52564;SDS011;38460;53.106;7.004;2024-01-11T10:40:09;37.88;;;19.90;;
52564;SDS011;38460;53.106;7.004;2024-01-11T10:42:42;35.58;;;18.30;;
52564;SDS011;38460;53.106;7.004;2024-01-11T10:45:15;34.38;;;18.20;;
52564;SDS011;38460;53.106;7.004;2024-01-11T10:47:51;34.22;;;18.15;;
52564;SDS011;38460;53.106;7.004;2024-01-11T10:50:26;31.55;;;16.13;;
52564;SDS011;38460;53.106;7.004;2024-01-11T10:55:30;27.98;;;17.33;;
52564;SDS011;38460;53.106;7.004;2024-01-11T10:57:58;32.00;;;17.45;;
52564;SDS011;38460;53.106;7.004;2024-01-11T11:00:25;34.70;;;17.05;;
52564;SDS011;38460;53.106;7.004;2024-01-11T11:02:52;33.88;;;17.25;;
52564;SDS011;38460;53.106;7.004;2024-01-11T11:05:20;30.10;;;16.40;;
52564;SDS011;38460;53.106;7.004;2024-01-11T11:07:50;28.08;;;16.38;;
52564;SDS011;38460;53.106;7.004;2024-01-11T11:10:20;28.95;;;16.35;;
52564;SDS011;38460;53.106;7.004;2024-01-11T11:12:47;32.33;;;16.38;;
52564;SDS011;38460;53.106;7.004;2024-01-11T11:15:14;34.20;;;16.42;;
52564;SDS011;38460;53.106;7.004;2024-01-11T11:17:40;33.08;;;16.58;;
52564;SDS011;38460;53.106;7.004;2024-01-11T11:20:08;33.25;;;17.52;;
52564;SDS011;38460;53.106;7.004;2024-01-11T11:22:41;30.85;;;15.60;;
52564;SDS011;38460;53.106;7.004;2024-01-11T11:25:11;35.55;;;17.92;;
52564;SDS011;38460;53.106;7.004;2024-01-11T11:27:49;31.23;;;16.77;;
52564;SDS011;38460;53.106;7.004;2024-01-11T11:30:14;28.25;;;16.65;;
52564;SDS011;38460;53.106;7.004;2024-01-11T11:32:45;28.67;;;15.68;;
52564;SDS011;38460;53.106;7.004;2024-01-11T11:35:11;29.90;;;16.02;;
52564;SDS011;38460;53.106;7.004;2024-01-11T11:37:38;31.23;;;16.63;;
52564;SDS011;38460;53.106;7.004;2024-01-11T11:40:10;34.88;;;17.88;;
52564;SDS011;38460;53.106;7.004;2024-01-11T11:42:36;31.25;;;16.17;;
52564;SDS011;38460;53.106;7.004;2024-01-11T11:45:02;31.80;;;17.67;;
52564;SDS011;38460;53.106;7.004;2024-01-11T11:47:33;30.63;;;17.15;;
52564;SDS011;38460;53.106;7.004;2024-01-11T11:50:04;33.60;;;18.13;;
52564;SDS011;38460;53.106;7.004;2024-01-11T11:52:34;32.75;;;17.67;;
52564;SDS011;38460;53.106;7.004;2024-01-11T11:55:02;29.60;;;17.95;;
52564;SDS011;38460;53.106;7.004;2024-01-11T11:57:28;27.33;;;15.95;;
52564;SDS011;38460;53.106;7.004;2024-01-11T11:59:57;35.45;;;17.67;;
52564;SDS011;38460;53.106;7.004;2024-01-11T12:02:24;31.63;;;16.45;;
52564;SDS011;38460;53.106;7.004;2024-01-11T12:04:51;28.38;;;15.45;;
52564;SDS011;38460;53.106;7.004;2024-01-11T12:07:17;30.45;;;16.80;;
52564;SDS011;38460;53.106;7.004;2024-01-11T12:09:44;32.33;;;15.95;;
52564;SDS011;38460;53.106;7.004;2024-01-11T12:12:12;33.03;;;16.70;;
52564;SDS011;38460;53.106;7.004;2024-01-11T12:14:38;29.98;;;16.20;;
52564;SDS011;38460;53.106;7.004;2024-01-11T12:17:05;30.33;;;16.63;;
52564;SDS011;38460;53.106;7.004;2024-01-11T12:19:31;30.45;;;16.13;;
52564;SDS011;38460;53.106;7.004;2024-01-11T12:21:57;29.50;;;17.02;;
52564;SDS011;38460;53.106;7.004;2024-01-11T12:24:24;29.23;;;16.98;;
52564;SDS011;38460;53.106;7.004;2024-01-11T12:30:31;33.00;;;16.33;;
52564;SDS011;38460;53.106;7.004;2024-01-11T12:32:57;33.10;;;16.83;;
52564;SDS011;38460;53.106;7.004;2024-01-11T12:35:26;30.13;;;16.90;;
52564;SDS011;38460;53.106;7.004;2024-01-11T12:37:59;35.58;;;16.98;;
52564;SDS011;38460;53.106;7.004;2024-01-11T12:40:33;27.80;;;15.38;;
52564;SDS011;38460;53.106;7.004;2024-01-11T12:43:05;29.77;;;16.48;;
52564;SDS011;38460;53.106;7.004;2024-01-11T12:45:32;30.48;;;17.25;;
52564;SDS011;38460;53.106;7.004;2024-01-11T12:47:59;28.77;;;15.98;;
52564;SDS011;38460;53.106;7.004;2024-01-11T12:50:26;30.35;;;16.77;;
52564;SDS011;38460;53.106;7.004;2024-01-11T12:53:12;32.08;;;17.52;;
52564;SDS011;38460;53.106;7.004;2024-01-11T12:55:45;33.45;;;18.67;;
52564;SDS011;38460;53.106;7.004;2024-01-11T12:58:26;34.03;;;18.73;;
52564;SDS011;38460;53.106;7.004;2024-01-11T13:00:52;33.20;;;16.75;;
52564;SDS011;38460;53.106;7.004;2024-01-11T13:03:19;33.88;;;18.50;;
52564;SDS011;38460;53.106;7.004;2024-01-11T13:05:45;34.05;;;17.23;;
52564;SDS011;38460;53.106;7.004;2024-01-11T13:08:11;31.50;;;17.52;;
52564;SDS011;38460;53.106;7.004;2024-01-11T13:10:37;32.75;;;19.00;;
52564;SDS011;38460;53.106;7.004;2024-01-11T13:13:03;32.50;;;17.70;;
52564;SDS011;38460;53.106;7.004;2024-01-11T13:15:33;37.70;;;20.15;;
52564;SDS011;38460;53.106;7.004;2024-01-11T13:18:00;36.97;;;19.85;;
52564;SDS011;38460;53.106;7.004;2024-01-11T13:20:26;35.35;;;20.73;;
52564;SDS011;38460;53.106;7.004;2024-01-11T13:23:15;35.13;;;18.13;;
52564;SDS011;38460;53.106;7.004;2024-01-11T13:25:45;32.00;;;18.35;;
52564;SDS011;38460;53.106;7.004;2024-01-11T13:28:15;32.05;;;16.98;;
52564;SDS011;38460;53.106;7.004;2024-01-11T13:30:41;35.20;;;19.90;;
52564;SDS011;38460;53.106;7.004;2024-01-11T13:33:09;32.92;;;18.73;;
52564;SDS011;38460;53.106;7.004;2024-01-11T13:35:38;30.65;;;17.80;;
52564;SDS011;38460;53.106;7.004;2024-01-11T13:38:05;34.08;;;18.17;;
52564;SDS011;38460;53.106;7.004;2024-01-11T13:40:31;29.55;;;17.15;;
52564;SDS011;38460;53.106;7.004;2024-01-11T13:42:58;31.52;;;18.17;;
52564;SDS011;38460;53.106;7.004;2024-01-11T13:45:24;33.20;;;18.35;;
52564;SDS011;38460;53.106;7.004;2024-01-11T13:47:51;30.90;;;18.17;;
52564;SDS011;38460;53.106;7.004;2024-01-11T13:50:21;34.15;;;18.45;;
52564;SDS011;38460;53.106;7.004;2024-01-11T13:52:47;36.33;;;18.08;;
52564;SDS011;38460;53.106;7.004;2024-01-11T13:55:13;30.95;;;18.13;;
52564;SDS011;38460;53.106;7.004;2024-01-11T13:57:39;32.33;;;17.75;;
52564;SDS011;38460;53.106;7.004;2024-01-11T14:00:07;31.38;;;17.90;;
52564;SDS011;38460;53.106;7.004;2024-01-11T14:02:36;36.40;;;17.40;;
52564;SDS011;38460;53.106;7.004;2024-01-11T14:05:02;28.92;;;17.83;;
52564;SDS011;38460;53.106;7.004;2024-01-11T14:07:29;32.28;;;17.70;;
52564;SDS011;38460;53.106;7.004;2024-01-11T14:09:55;33.65;;;18.58;;
52564;SDS011;38460;53.106;7.004;2024-01-11T14:12:21;28.55;;;18.20;;
52564;SDS011;38460;53.106;7.004;2024-01-11T14:14:47;30.98;;;17.67;;
52564;SDS011;38460;53.106;7.004;2024-01-11T14:17:13;33.20;;;19.27;;
52564;SDS011;38460;53.106;7.004;2024-01-11T14:19:38;29.00;;;17.65;;
52564;SDS011;38460;53.106;7.004;2024-01-11T14:22:04;36.30;;;19.60;;
52564;SDS011;38460;53.106;7.004;2024-01-11T14:24:30;31.98;;;18.75;;
52564;SDS011;38460;53.106;7.004;2024-01-11T14:26:56;33.42;;;18.67;;